createdAt,value
2022-08-07T00:02:35.447Z,2.30
2022-08-07T00:04:09.225Z,2.05
2022-08-07T00:06:40.998Z,2.20
2022-08-07T00:09:29.197Z,2.30
2022-08-07T00:12:03.631Z,2.58
2022-08-07T00:14:31.901Z,2.10
2022-08-07T00:17:05.062Z,1.77
2022-08-07T00:20:01.472Z,1.67
2022-08-07T00:22:35.349Z,1.90
2022-08-07T00:25:11.151Z,1.80
2022-08-07T00:27:52.644Z,1.70
2022-08-07T00:30:27.571Z,1.70
2022-08-07T00:32:57.639Z,1.60
2022-08-07T00:35:27.292Z,1.95
2022-08-07T00:37:58.746Z,1.80
2022-08-07T00:40:40.061Z,1.55
2022-08-07T00:44:00.627Z,1.80
2022-08-07T00:46:00.278Z,1.77
2022-08-07T00:48:31.793Z,1.85
2022-08-07T00:51:01.118Z,1.70
2022-08-07T00:53:39.083Z,2.00
2022-08-07T00:56:21.717Z,1.70
2022-08-07T00:58:49.725Z,1.60
2022-08-07T01:01:20.217Z,1.80
2022-08-07T01:03:57.348Z,1.80
2022-08-07T01:06:31.818Z,1.77
2022-08-07T01:09:01.424Z,2.13
2022-08-07T01:12:27.623Z,1.90
2022-08-07T01:14:28.403Z,2.00
2022-08-07T01:16:57.315Z,1.70
2022-08-07T01:19:32.148Z,1.92
2022-08-07T01:22:00.737Z,1.98
2022-08-07T01:24:35.981Z,1.70
2022-08-07T01:27:04.450Z,1.77
2022-08-07T01:29:34.188Z,1.80
2022-08-07T01:32:05.833Z,1.70
2022-08-07T01:34:47.332Z,2.10
2022-08-07T01:37:17.427Z,1.80
2022-08-07T01:39:47.963Z,1.90
2022-08-07T01:42:38.579Z,2.00
2022-08-07T01:45:18.110Z,2.00
2022-08-07T01:48:19.897Z,1.90
2022-08-07T01:50:40.222Z,1.75
2022-08-07T01:53:21.135Z,1.80
2022-08-07T01:56:06.219Z,1.77
2022-08-07T01:58:41.898Z,1.73
2022-08-07T02:01:25.508Z,1.95
2022-08-07T02:04:26.660Z,1.65
2022-08-07T02:07:01.310Z,1.80
2022-08-07T02:09:52.303Z,1.90
2022-08-07T02:15:06.067Z,1.70
2022-08-07T02:17:49.233Z,1.65
2022-08-07T02:20:23.378Z,1.38
2022-08-07T02:22:59.629Z,1.48
2022-08-07T02:26:11.399Z,1.60
2022-08-07T02:28:25.275Z,1.50
2022-08-07T02:31:00.035Z,1.55
2022-08-07T02:33:57.291Z,1.38
2022-08-07T02:36:32.974Z,1.60
2022-08-07T02:39:15.960Z,1.70
2022-08-07T02:41:54.444Z,1.63
2022-08-07T02:44:34.837Z,1.50
2022-08-07T02:47:07.896Z,1.40
2022-08-07T02:49:56.196Z,1.45
2022-08-07T02:52:37.530Z,1.60
2022-08-07T02:55:28.724Z,1.70
2022-08-07T02:58:14.532Z,1.90
2022-08-07T03:00:55.012Z,1.60
2022-08-07T03:03:24.943Z,1.60
2022-08-07T03:05:57.751Z,1.58
2022-08-07T03:08:26.752Z,1.80
2022-08-07T03:10:59.141Z,1.80
2022-08-07T03:13:39.245Z,1.90
2022-08-07T03:16:22.839Z,1.80
2022-08-07T03:18:59.523Z,1.92
2022-08-07T03:21:29.089Z,1.90
2022-08-07T03:24:19.927Z,1.90
2022-08-07T03:26:58.137Z,1.90
2022-08-07T03:29:37.741Z,1.67
2022-08-07T03:32:12.959Z,1.80
2022-08-07T03:34:47.186Z,1.80
2022-08-07T03:37:37.498Z,2.03
2022-08-07T03:40:15.542Z,1.98
2022-08-07T03:42:44.501Z,2.03
2022-08-07T03:45:30.253Z,1.90
2022-08-07T03:48:10.013Z,1.75
2022-08-07T03:50:55.853Z,1.88
2022-08-07T03:54:00.526Z,1.80
2022-08-07T03:56:33.115Z,1.75
2022-08-07T03:59:13.345Z,1.92
2022-08-07T04:01:55.587Z,1.70
2022-08-07T04:04:24.325Z,1.90
2022-08-07T04:07:00.348Z,1.65
2022-08-07T04:09:44.739Z,1.80
2022-08-07T04:12:25.796Z,2.05
2022-08-07T04:15:00.130Z,2.00
2022-08-07T04:20:19.426Z,1.63
2022-08-07T04:22:53.698Z,2.00
2022-08-07T04:25:31.772Z,1.65
2022-08-07T04:28:10.448Z,1.83
2022-08-07T04:30:57.285Z,1.55
2022-08-07T04:33:31.732Z,1.95
2022-08-07T04:36:01.216Z,1.70
2022-08-07T04:38:33.913Z,1.80
2022-08-07T04:41:02.572Z,2.00
2022-08-07T04:44:14.458Z,1.85
2022-08-07T04:46:35.935Z,1.90
2022-08-07T04:49:57.516Z,1.90
2022-08-07T04:52:51.281Z,1.95
2022-08-07T04:58:23.951Z,2.05
2022-08-07T04:59:17.570Z,1.80
2022-08-07T05:01:46.929Z,1.92
2022-08-07T05:04:37.573Z,1.80
2022-08-07T05:07:20.653Z,1.60
2022-08-07T05:10:30.692Z,2.00
2022-08-07T05:14:44.640Z,1.77
2022-08-07T05:15:59.685Z,1.63
2022-08-07T05:18:49.386Z,1.90
2022-08-07T05:21:25.299Z,1.60
2022-08-07T05:24:12.054Z,1.52
2022-08-07T05:26:41.067Z,1.50
2022-08-07T05:29:17.985Z,1.70
2022-08-07T05:31:52.747Z,1.40
2022-08-07T05:34:28.465Z,1.80
2022-08-07T05:36:57.497Z,1.60
2022-08-07T05:40:17.166Z,1.83
2022-08-07T05:42:34.492Z,1.60
2022-08-07T05:45:25.772Z,1.60
2022-08-07T05:48:03.764Z,1.85
2022-08-07T05:50:44.916Z,1.73
2022-08-07T05:54:13.643Z,1.88
2022-08-07T05:56:09.156Z,1.52
2022-08-07T05:58:52.610Z,1.60
2022-08-07T06:01:27.433Z,1.60
2022-08-07T06:04:07.598Z,1.88
2022-08-07T06:06:46.430Z,1.80
2022-08-07T06:09:17.315Z,1.42
2022-08-07T06:11:50.740Z,1.73
2022-08-07T06:14:28.733Z,1.58
2022-08-07T06:17:01.433Z,1.75
2022-08-07T06:19:52.369Z,1.77
2022-08-07T06:22:28.544Z,1.58
2022-08-07T06:25:10.169Z,1.60
2022-08-07T06:27:44.333Z,1.80
2022-08-07T06:30:37.305Z,1.70
2022-08-07T06:33:16.606Z,1.95
2022-08-07T06:36:06.602Z,2.10
2022-08-07T06:38:37.189Z,1.90
2022-08-07T06:41:12.924Z,1.90
2022-08-07T06:44:01.348Z,1.85
2022-08-07T06:46:35.623Z,2.08
2022-08-07T06:49:07.093Z,1.60
2022-08-07T06:51:49.605Z,2.30
2022-08-07T06:55:32.640Z,2.05
2022-08-07T06:57:14.154Z,2.08
2022-08-07T07:00:14.718Z,2.50
2022-08-07T07:02:53.431Z,2.10
2022-08-07T07:06:02.440Z,2.17
2022-08-07T07:08:18.574Z,2.30
2022-08-07T07:10:59.045Z,2.00
2022-08-07T07:13:57.833Z,2.00
2022-08-07T07:16:39.199Z,1.88
2022-08-07T07:19:55.776Z,2.05
2022-08-07T07:22:33.736Z,1.90
2022-08-07T07:25:02.926Z,2.15
2022-08-07T07:28:07.543Z,2.10
2022-08-07T07:30:59.035Z,1.90
2022-08-07T07:33:30.591Z,2.17
2022-08-07T07:36:05.465Z,2.13
2022-08-07T07:38:46.001Z,2.17
2022-08-07T07:41:18.566Z,1.90
2022-08-07T07:44:17.528Z,2.10
2022-08-07T07:46:55.847Z,1.73
2022-08-07T07:50:35.611Z,1.90
2022-08-07T07:52:18.626Z,1.83
2022-08-07T07:54:50.779Z,2.28
2022-08-07T07:57:52.725Z,1.80
2022-08-07T08:00:18.279Z,1.80
2022-08-07T08:03:04.802Z,1.90
2022-08-07T08:05:54.253Z,2.10
2022-08-07T08:08:35.112Z,2.03
2022-08-07T08:11:16.326Z,2.25
2022-08-07T08:13:54.729Z,2.22
2022-08-07T08:16:30.079Z,2.10
2022-08-07T08:19:17.720Z,2.50
2022-08-07T08:22:11.699Z,2.30
2022-08-07T08:25:18.894Z,2.22
2022-08-07T08:27:56.312Z,2.20
2022-08-07T08:30:32.235Z,2.60
2022-08-07T08:35:39.341Z,2.80
2022-08-07T08:38:19.744Z,2.35
2022-08-07T08:41:13.531Z,3.10
2022-08-07T08:44:00.738Z,2.35
2022-08-07T08:46:32.038Z,2.30
2022-08-07T08:49:17.074Z,2.22
2022-08-07T08:52:13.664Z,2.63
2022-08-07T08:54:48.850Z,2.40
2022-08-07T08:57:33.997Z,2.38
2022-08-07T09:00:10.701Z,1.80
2022-08-07T09:02:59.631Z,2.20
2022-08-07T09:05:48.149Z,2.17
2022-08-07T09:08:49.657Z,2.10
2022-08-07T09:11:24.512Z,2.03
2022-08-07T09:14:29.578Z,1.80
2022-08-07T09:17:21.513Z,1.80
2022-08-07T09:20:01.555Z,2.05
2022-08-07T09:24:32.926Z,1.80
2022-08-07T09:26:34.517Z,1.75
2022-08-07T09:30:05.755Z,2.28
2022-08-07T09:32:21.634Z,1.80
2022-08-07T09:36:03.066Z,1.85
2022-08-07T09:38:43.122Z,1.70
2022-08-07T09:42:09.208Z,1.60
2022-08-07T09:45:23.257Z,1.70
2022-08-07T09:48:50.274Z,1.80
2022-08-07T09:52:16.021Z,1.80
2022-08-07T09:54:55.653Z,1.60
2022-08-07T09:57:47.840Z,1.70
2022-08-07T10:00:21.566Z,1.20
2022-08-07T10:03:08.501Z,1.60
2022-08-07T10:06:00.583Z,1.70
2022-08-07T10:08:49.729Z,1.50
2022-08-07T10:12:03.336Z,1.80
2022-08-07T10:14:55.152Z,1.90
2022-08-07T10:17:25.518Z,1.98
2022-08-07T10:20:38.355Z,1.77
2022-08-07T10:24:05.723Z,1.85
2022-08-07T10:26:53.044Z,1.80
2022-08-07T10:30:03.667Z,1.60
2022-08-07T10:32:50.967Z,1.85
2022-08-07T10:35:56.499Z,2.17
2022-08-07T10:38:48.922Z,2.17
2022-08-07T10:41:47.008Z,2.00
2022-08-07T10:44:38.432Z,1.38
2022-08-07T10:47:52.565Z,1.60
2022-08-07T10:50:42.480Z,1.60
2022-08-07T10:54:06.693Z,1.70
2022-08-07T10:56:49.354Z,1.52
2022-08-07T10:59:53.171Z,1.80
2022-08-07T11:02:38.077Z,1.58
2022-08-07T11:05:24.163Z,1.83
2022-08-07T11:08:12.021Z,1.65
2022-08-07T11:10:55.407Z,1.50
2022-08-07T11:14:44.576Z,1.60
2022-08-07T11:16:45.887Z,1.30
2022-08-07T11:19:27.507Z,1.58
2022-08-07T11:22:18.942Z,1.52
2022-08-07T11:25:16.453Z,1.80
2022-08-07T11:28:15.441Z,1.23
2022-08-07T11:30:57.826Z,1.50
2022-08-07T11:33:58.398Z,1.40
2022-08-07T11:36:41.973Z,1.52
2022-08-07T11:39:19.522Z,1.50
2022-08-07T11:42:22.360Z,1.65
2022-08-07T11:45:23.792Z,1.40
2022-08-07T11:48:29.982Z,1.30
2022-08-07T11:51:41.684Z,1.40
2022-08-07T11:54:31.622Z,1.33
2022-08-07T11:57:02.182Z,1.40
2022-08-07T12:00:10.213Z,1.50
2022-08-07T12:02:59.783Z,1.50
2022-08-07T12:05:49.850Z,1.50
2022-08-07T12:08:25.815Z,1.30
2022-08-07T12:11:20.796Z,1.35
2022-08-07T12:13:53.711Z,1.10
2022-08-07T12:16:32.858Z,1.50
2022-08-07T12:19:21.700Z,1.45
2022-08-07T12:22:37.563Z,1.30
2022-08-07T12:26:05.653Z,1.30
2022-08-07T12:28:31.534Z,1.25
2022-08-07T12:31:09.282Z,1.70
2022-08-07T12:34:01.250Z,1.27
2022-08-07T12:36:33.092Z,1.48
2022-08-07T12:39:09.504Z,1.30
2022-08-07T12:41:55.954Z,1.20
2022-08-07T12:44:25.769Z,1.40
2022-08-07T12:48:13.349Z,1.58
2022-08-07T12:51:51.048Z,2.10
2022-08-07T12:55:09.620Z,1.60
2022-08-07T12:58:02.507Z,1.50
2022-08-07T13:01:08.021Z,1.27
2022-08-07T13:04:32.591Z,1.42
2022-08-07T13:08:12.845Z,1.65
2022-08-07T13:10:52.069Z,1.20
2022-08-07T13:13:57.434Z,1.50
2022-08-07T13:16:40.348Z,1.50
2022-08-07T13:19:34.965Z,1.30
2022-08-07T13:22:19.791Z,1.17
2022-08-07T13:25:06.023Z,1.25
2022-08-07T13:28:12.575Z,1.50
2022-08-07T13:31:01.508Z,1.30
2022-08-07T13:34:30.293Z,1.25
2022-08-07T13:36:52.642Z,1.17
2022-08-07T13:40:33.493Z,1.30
2022-08-07T13:42:39.213Z,1.10
2022-08-07T13:46:07.095Z,1.35
2022-08-07T13:48:05.466Z,1.30
2022-08-07T13:51:00.040Z,1.30
2022-08-07T13:53:55.303Z,1.23
2022-08-07T13:56:35.942Z,1.63
2022-08-07T13:59:12.858Z,1.38
2022-08-07T14:01:51.349Z,1.25
2022-08-07T14:04:35.665Z,1.23
2022-08-07T14:07:09.325Z,1.50
2022-08-07T14:10:00.902Z,1.33
2022-08-07T14:12:36.077Z,1.30
2022-08-07T14:15:32.035Z,1.40
2022-08-07T14:18:28.463Z,1.58
2022-08-07T14:22:01.770Z,1.50
2022-08-07T14:24:42.047Z,1.60
2022-08-07T14:30:11.984Z,1.50
2022-08-07T14:33:04.598Z,1.33
2022-08-07T14:35:45.327Z,1.38
2022-08-07T14:38:30.271Z,1.50
2022-08-07T14:41:06.255Z,1.58
2022-08-07T14:43:58.662Z,1.48
2022-08-07T14:46:37.007Z,1.30
2022-08-07T14:49:56.507Z,1.52
2022-08-07T14:52:10.866Z,1.63
2022-08-07T14:54:43.368Z,1.40
2022-08-07T14:57:14.945Z,1.58
2022-08-07T15:00:05.780Z,1.15
2022-08-07T15:02:37.335Z,1.42
2022-08-07T15:05:19.737Z,1.35
2022-08-07T15:07:52.269Z,1.50
2022-08-07T15:10:25.044Z,1.40
2022-08-07T15:13:00.812Z,1.40
2022-08-07T15:15:38.886Z,1.58
2022-08-07T15:18:33.627Z,1.48
2022-08-07T15:21:07.981Z,1.83
2022-08-07T15:25:14.899Z,1.63
2022-08-07T15:26:39.506Z,1.70
2022-08-07T15:30:09.565Z,1.70
2022-08-07T15:32:05.376Z,1.67
2022-08-07T15:34:56.954Z,1.65
2022-08-07T15:37:29.430Z,1.38
2022-08-07T15:40:34.443Z,1.85
2022-08-07T15:43:33.227Z,1.60
2022-08-07T15:46:32.237Z,1.60
2022-08-07T15:49:13.071Z,1.70
2022-08-07T15:54:33.927Z,1.63
2022-08-07T15:57:03.447Z,1.80
2022-08-07T15:59:39.790Z,1.50
2022-08-07T16:02:23.829Z,1.73
2022-08-07T16:04:57.795Z,1.60
2022-08-07T16:08:31.292Z,1.50
2022-08-07T16:10:25.099Z,1.60
2022-08-07T16:13:05.471Z,1.60
2022-08-07T16:16:03.468Z,1.65
2022-08-07T16:18:50.093Z,2.17
2022-08-07T16:22:01.323Z,1.80
2022-08-07T16:24:52.767Z,1.80
2022-08-07T16:27:47.047Z,1.88
2022-08-07T16:30:31.610Z,1.90
2022-08-07T16:34:02.031Z,2.10
2022-08-07T16:36:19.789Z,1.75
2022-08-07T16:39:20.870Z,1.90
2022-08-07T16:42:24.083Z,2.08
2022-08-07T16:45:14.925Z,2.05
2022-08-07T16:48:04.430Z,1.83
2022-08-07T16:54:16.686Z,1.65
2022-08-07T16:56:57.954Z,2.00
2022-08-07T16:59:46.666Z,1.90
2022-08-07T17:02:52.943Z,2.30
2022-08-07T17:06:26.535Z,1.98
2022-08-07T17:09:04.330Z,2.03
2022-08-07T17:12:03.934Z,1.92
2022-08-07T17:14:41.890Z,1.98
2022-08-07T17:17:44.237Z,1.80
2022-08-07T17:20:37.818Z,1.75
2022-08-07T17:23:32.471Z,2.25
2022-08-07T17:26:22.509Z,1.75
2022-08-07T17:30:15.191Z,1.73
2022-08-07T17:32:30.771Z,1.88
2022-08-07T17:35:51.604Z,1.67
2022-08-07T17:38:32.282Z,1.75
2022-08-07T17:42:02.860Z,1.58
2022-08-07T17:44:45.401Z,1.63
2022-08-07T17:47:59.200Z,1.40
2022-08-07T17:50:49.107Z,1.45
2022-08-07T17:54:01.516Z,1.77
2022-08-07T17:56:39.227Z,1.80
2022-08-07T17:59:53.970Z,1.60
2022-08-07T18:02:56.520Z,1.43
2022-08-07T18:06:09.312Z,1.92
2022-08-07T18:09:01.953Z,1.52
2022-08-07T18:12:27.733Z,1.50
2022-08-07T18:15:33.019Z,1.50
2022-08-07T18:18:46.314Z,1.67
2022-08-07T18:21:42.166Z,1.77
2022-08-07T18:24:33.090Z,1.50
2022-08-07T18:27:24.249Z,1.55
2022-08-07T18:30:31.544Z,1.58
2022-08-07T18:33:54.854Z,1.77
2022-08-07T18:36:53.810Z,1.30
2022-08-07T18:40:08.818Z,1.48
2022-08-07T18:42:54.470Z,1.70
2022-08-07T18:46:25.819Z,1.40
2022-08-07T18:50:30.074Z,1.45
2022-08-07T18:52:34.001Z,1.30
2022-08-07T18:54:54.065Z,1.20
2022-08-07T18:58:04.842Z,1.55
2022-08-07T19:01:05.629Z,1.50
2022-08-07T19:03:56.428Z,1.55
2022-08-07T19:06:48.413Z,1.40
2022-08-07T19:09:55.794Z,1.55
2022-08-07T19:12:21.702Z,1.50
2022-08-07T19:16:02.466Z,1.45
2022-08-07T19:18:14.826Z,1.40
2022-08-07T19:21:09.816Z,1.50
2022-08-07T19:23:58.767Z,1.52
2022-08-07T19:26:53.699Z,1.50
2022-08-07T19:31:05.415Z,1.45
2022-08-07T19:32:29.111Z,1.40
2022-08-07T19:35:03.274Z,1.60
2022-08-07T19:37:56.462Z,1.65
2022-08-07T19:40:30.969Z,1.80
2022-08-07T19:42:59.189Z,1.60
2022-08-07T19:46:07.192Z,1.55
2022-08-07T19:48:30.525Z,1.80
2022-08-07T19:51:19.867Z,1.60
2022-08-07T19:54:30.945Z,1.60
2022-08-07T19:59:42.432Z,1.60
2022-08-07T20:02:19.790Z,1.70
2022-08-07T20:04:52.764Z,1.92
2022-08-07T20:07:46.142Z,1.80
2022-08-07T20:10:36.867Z,1.45
2022-08-07T20:13:27.169Z,1.60
2022-08-07T20:16:01.961Z,1.90
2022-08-07T20:18:33.747Z,1.33
2022-08-07T20:21:21.350Z,1.70
2022-08-07T20:24:03.716Z,1.70
2022-08-07T20:26:44.748Z,1.50
2022-08-07T20:29:48.672Z,1.40
2022-08-07T20:32:11.428Z,1.35
2022-08-07T20:34:54.245Z,1.58
2022-08-07T20:37:29.930Z,1.67
2022-08-07T20:40:05.309Z,1.85
2022-08-07T20:42:58.821Z,1.70
2022-08-07T20:45:33.265Z,1.95
2022-08-07T20:48:28.541Z,2.17
2022-08-07T20:51:02.858Z,2.20
2022-08-07T20:54:02.908Z,2.00
2022-08-07T20:56:27.285Z,1.92
2022-08-07T20:59:00.070Z,2.08
2022-08-07T21:01:46.038Z,1.80
2022-08-07T21:04:26.161Z,2.03
2022-08-07T21:07:04.105Z,2.00
2022-08-07T21:09:52.845Z,1.95
2022-08-07T21:12:31.017Z,1.90
2022-08-07T21:15:05.431Z,2.25
2022-08-07T21:18:06.615Z,2.30
2022-08-07T21:20:26.799Z,2.10
2022-08-07T21:23:08.433Z,1.95
2022-08-07T21:25:56.159Z,1.90
2022-08-07T21:28:50.306Z,2.08
2022-08-07T21:32:42.692Z,2.00
2022-08-07T21:34:58.032Z,2.00
2022-08-07T21:37:58.171Z,1.95
2022-08-07T21:40:52.040Z,1.95
2022-08-07T21:43:55.444Z,2.05
2022-08-07T21:46:57.770Z,1.90
2022-08-07T21:50:02.075Z,1.90
2022-08-07T21:52:48.694Z,1.98
2022-08-07T21:55:31.652Z,2.00
2022-08-07T21:58:07.915Z,1.92
2022-08-07T22:00:45.875Z,2.15
2022-08-07T22:03:37.868Z,2.00
2022-08-07T22:06:30.721Z,1.88
2022-08-07T22:09:13.685Z,1.60
2022-08-07T22:12:05.035Z,1.80
2022-08-07T22:14:59.955Z,1.75
2022-08-07T22:17:35.980Z,1.70
2022-08-07T22:20:34.288Z,2.10
2022-08-07T22:23:21.632Z,1.98
2022-08-07T22:25:56.005Z,1.67
2022-08-07T22:28:33.423Z,1.85
2022-08-07T22:31:45.342Z,1.92
2022-08-07T22:34:29.105Z,2.10
2022-08-07T22:37:13.604Z,1.75
2022-08-07T22:39:53.313Z,1.88
2022-08-07T22:42:30.480Z,2.05
2022-08-07T22:45:03.495Z,1.73
2022-08-07T22:50:33.675Z,1.60
2022-08-07T22:53:15.355Z,1.73
2022-08-07T22:56:08.755Z,1.73
2022-08-07T22:58:58.023Z,1.60
2022-08-07T23:01:54.517Z,1.90
2022-08-07T23:06:07.426Z,1.80
2022-08-07T23:08:12.236Z,1.70
2022-08-07T23:11:26.789Z,1.90
2022-08-07T23:14:24.166Z,1.90
2022-08-07T23:17:24.250Z,1.75
2022-08-07T23:20:40.306Z,1.92
2022-08-07T23:24:06.921Z,1.98
2022-08-07T23:26:23.507Z,1.70
2022-08-07T23:30:35.340Z,1.85
2022-08-07T23:34:19.549Z,1.92
2022-08-07T23:35:19.237Z,2.10
2022-08-07T23:38:00.508Z,1.60
2022-08-07T23:40:53.070Z,1.92
2022-08-07T23:43:57.351Z,1.90
2022-08-07T23:46:51.521Z,1.90
2022-08-07T23:49:42.118Z,1.85
2022-08-07T23:53:01.377Z,2.40
2022-08-07T23:58:47.444Z,2.28
